Alba Rousing — OVIL2 — position and weather

sailwx.info

Track history (hours):
 
Tides and Currents Weather Stations Pressure Air Temp Water Temp Dewpoint Dewpoint Depression Visibility Wind Speed Wind Dir Waves Ship Positions

Alba Rousing

Last reported at 2017-Nov-20 00:30 UTC. Time now 2017-Nov-20 01:50 UTC.
Position N 59°59' E 004°56'.

Length 79 m; draft 2.8 m.

Type: Ship. MMSI: 220439000.

Date/timePositionNaut miles runAvg speedWind from/ knotsBaromVisibWave heightAir tempDewpointWater temp
2017-Nov-20 00:30N 59°59' E 004°56'2 4.8
2017-Nov-20 00:00N 59°57' E 004°56'2 4.8
2017-Nov-19 23:30N 59°54' E 004°57'3 5.0
2017-Nov-19 23:00N 59°52' E 004°57'3 5.8
2017-Nov-19 22:30N 59°49' E 004°57'3 5.7
2017-Nov-19 22:00N 59°46' E 004°57'3 6.2
2017-Nov-19 21:30N 59°43' E 004°57'3 6.6
2017-Nov-19 21:00N 59°40' E 004°57'3 6.4
2017-Nov-19 20:30N 59°36' E 004°57'3 5.3
2017-Nov-19 20:00N 59°34' E 004°57'3 5.2
2017-Nov-19 19:30N 59°31' E 004°57'3 5.4
2017-Nov-19 19:00N 59°29' E 004°57'3 5.4
2017-Nov-19 18:30N 59°26' E 004°57'2 4.7
2017-Nov-19 18:00N 59°23' E 004°57'3 5.2
2017-Nov-19 17:30N 59°21' E 004°57'3 5.1
2017-Nov-19 17:00N 59°18' E 004°59'3 5.9
2017-Nov-19 16:30N 59°16' E 005°01'3 5.6
2017-Nov-19 16:00N 59°13' E 005°03'3 5.5
2017-Nov-19 15:30N 59°11' E 005°05'3 6.0
2017-Nov-19 15:00N 59°08' E 005°09'3 6.2
2017-Nov-19 14:30N 59°07' E 005°15'4 8.3
2017-Nov-19 14:00N 59°07' E 005°23'4 8.2
2017-Nov-19 13:30N 59°06' E 005°31'3 7.0
2017-Nov-19 13:00N 59°04' E 005°35'4 8.8
2017-Nov-19 12:30N 59°01' E 005°41'4 7.0
2017-Nov-19 12:00N 58°59' E 005°47'4 8.6
2017-Nov-19 11:30N 58°54' E 005°46'3 6.1
2017-Nov-19 10:59N 58°51' E 005°45'0 0.0
2017-Nov-19 10:29N 58°51' E 005°45'0 0.0
2017-Nov-19 09:59N 58°51' E 005°45'0 0.0
2017-Nov-19 09:29N 58°51' E 005°45'0 0.0
2017-Nov-19 08:59N 58°51' E 005°45'0 0.0
2017-Nov-19 08:29N 58°51' E 005°45'0 0.0
2017-Nov-19 08:00N 58°51' E 005°45'0 0.0
2017-Nov-19 07:29N 58°51' E 005°45'0 0.0
2017-Nov-19 06:59N 58°51' E 005°45'0 0.0
2017-Nov-19 06:31N 58°51' E 005°45'0 0.0
2017-Nov-19 05:59N 58°51' E 005°45'0 0.0
2017-Nov-19 05:29N 58°51' E 005°45'0 0.0
2017-Nov-19 04:59N 58°51' E 005°45'0 0.0
2017-Nov-19 04:29N 58°51' E 005°45'0 0.0
2017-Nov-19 03:59N 58°51' E 005°45'0 0.0
2017-Nov-19 03:31N 58°51' E 005°45'0 0.0
2017-Nov-19 02:59N 58°51' E 005°45'0 0.0
2017-Nov-19 02:28N 58°51' E 005°45'0 0.0
2017-Nov-19 01:59N 58°51' E 005°45'0 0.0
2017-Nov-19 01:29N 58°51' E 005°45'0 0.0
2017-Nov-19 00:59N 58°51' E 005°45'0 0.0
2017-Nov-19 00:25N 58°51' E 005°45'0 0.0
2017-Nov-19 00:00N 58°51' E 005°45'0 0.0
2017-Nov-18 23:29N 58°51' E 005°45'0 0.0
2017-Nov-18 22:59N 58°51' E 005°45'0 0.0
2017-Nov-18 22:29N 58°51' E 005°45'0 0.0
2017-Nov-18 21:59N 58°51' E 005°45'0 0.0
2017-Nov-18 21:29N 58°51' E 005°45'0 0.0
2017-Nov-18 20:59N 58°51' E 005°45'0 0.0
2017-Nov-18 20:30N 58°51' E 005°45'3 5.2
2017-Nov-18 20:00N 58°54' E 005°46'4 8.9
2017-Nov-18 19:30N 58°58' E 005°48'4 7.9
2017-Nov-18 19:00N 59°02' E 005°46'4 8.1
2017-Nov-18 18:30N 59°02' E 005°38'2 4.9
2017-Nov-18 18:00N 59°01' E 005°33'3 7.0
2017-Nov-18 17:30N 58°58' E 005°33'3 6.8
2017-Nov-18 17:00N 58°55' E 005°32'3 5.5
2017-Nov-18 16:30N 58°52' E 005°31'3 6.6
2017-Nov-18 16:01N 58°51' E 005°25'4 7.1
2017-Nov-18 15:31N 58°52' E 005°18'2 3.1
2017-Nov-18 15:00N 58°51' E 005°19'1 2.9
2017-Nov-18 14:30N 58°49' E 005°20'1 2.6
2017-Nov-18 14:00N 58°48' E 005°21'1 2.9
2017-Nov-18 13:30N 58°47' E 005°22'2 3.1
2017-Nov-18 13:00N 58°46' E 005°23'2 3.3
2017-Nov-18 12:30N 58°44' E 005°23'2 3.5
2017-Nov-18 12:00N 58°42' E 005°23'2 3.4
2017-Nov-18 11:30N 58°40' E 005°24'2 3.0
2017-Nov-18 11:00N 58°39' E 005°25'2 3.0
2017-Nov-18 10:30N 58°38' E 005°27'2 3.5
2017-Nov-18 10:00N 58°36' E 005°29'2 4.0
2017-Nov-18 09:30N 58°35' E 005°31'2 4.4
2017-Nov-18 09:00N 58°33' E 005°33'2 4.3
2017-Nov-18 08:30N 58°31' E 005°35'2 4.1
2017-Nov-18 08:00N 58°30' E 005°38'2 4.0
2017-Nov-18 07:30N 58°28' E 005°40'2 4.1
2017-Nov-18 07:00N 58°26' E 005°43'2 4.1
2017-Nov-18 06:30N 58°25' E 005°45'2 4.2
2017-Nov-18 06:00N 58°23' E 005°48'2 4.1
2017-Nov-18 05:30N 58°22' E 005°50'2 4.3
2017-Nov-18 05:00N 58°20' E 005°53'2 4.8
2017-Nov-18 04:30N 58°18' E 005°56'2 5.0
2017-Nov-18 04:00N 58°17' E 006°00'2 4.6
2017-Nov-18 03:30N 58°15' E 006°04'3 5.3
2017-Nov-18 03:00N 58°14' E 006°07'3 5.4
2017-Nov-18 02:30N 58°12' E 006°12'3 5.1
2017-Nov-18 01:59N 58°11' E 006°16'2 4.9
2017-Nov-18 01:30N 58°09' E 006°19'3 5.0
2017-Nov-18 01:00N 58°08' E 006°23'2 4.4
2017-Nov-18 00:29N 58°06' E 006°26'2 3.9
2017-Nov-18 00:00N 58°05' E 006°29'2 4.0
2017-Nov-17 23:30N 58°04' E 006°32'2 3.8
2017-Nov-17 23:00N 58°03' E 006°35'2 3.7
2017-Nov-17 22:30N 58°02' E 006°38'2 3.4
2017-Nov-17 22:00N 58°01' E 006°41'2 3.8
2017-Nov-17 21:30N 58°00' E 006°44'2 4.0
2017-Nov-17 21:00N 57°59' E 006°47'2 4.0
2017-Nov-17 20:30N 57°59' E 006°51'2 3.5
2017-Nov-17 20:00N 57°58' E 006°54'2 4.0
2017-Nov-17 19:30N 57°58' E 006°58'2 3.7
2017-Nov-17 19:00N 57°57' E 007°01'2 3.9
2017-Nov-17 18:30N 57°57' E 007°05'2 4.1
2017-Nov-17 18:00N 57°57' E 007°09'2 3.8
2017-Nov-17 17:30N 57°57' E 007°12'2 4.0
2017-Nov-17 17:00N 57°57' E 007°16'2 3.7
2017-Nov-17 16:29N 57°56' E 007°20'2 3.6
2017-Nov-17 16:00N 57°56' E 007°23'2 3.6
2017-Nov-17 15:30N 57°56' E 007°26'2 3.5
2017-Nov-17 15:00N 57°56' E 007°29'2 3.5
2017-Nov-17 14:30N 57°56' E 007°33'2 3.6
2017-Nov-17 14:00N 57°57' E 007°36'2 4.3
2017-Nov-17 13:29N 57°57' E 007°40'2 4.8
2017-Nov-17 13:00N 57°58' E 007°44'2 5.0
2017-Nov-17 12:30N 57°59' E 007°48'3 5.3
2017-Nov-17 12:00N 58°02' E 007°50'3 5.6
2017-Nov-17 11:30N 58°04' E 007°48'0 0.7
2017-Nov-17 11:00N 58°04' E 007°48'0 0.0
2017-Nov-17 10:30N 58°04' E 007°48'0 0.0
2017-Nov-17 09:57N 58°04' E 007°48'0 0.0
2017-Nov-17 09:30N 58°04' E 007°48'0 0.0
2017-Nov-17 09:00N 58°04' E 007°48'0 0.0
2017-Nov-17 08:30N 58°04' E 007°48'0 0.0
2017-Nov-17 08:00N 58°04' E 007°48'0 0.0
2017-Nov-17 07:30N 58°04' E 007°48'0 0.0
2017-Nov-17 07:00N 58°04' E 007°48'0 0.0
2017-Nov-17 06:30N 58°04' E 007°48'0 0.0
2017-Nov-17 06:00N 58°04' E 007°48'0 0.2
2017-Nov-17 05:30N 58°04' E 007°48'3 6.1
2017-Nov-17 05:00N 58°02' E 007°52'4 7.2
2017-Nov-17 04:30N 58°05' E 007°57'3 6.6
2017-Nov-17 04:00N 58°05' E 008°03'3 6.5
2017-Nov-17 03:30N 58°03' E 008°08'2 4.3
2017-Nov-17 03:00N 58°03' E 008°12'2 4.3
2017-Nov-17 02:30N 58°02' E 008°16'2 4.2
2017-Nov-17 02:00N 58°02' E 008°20'2 4.0
2017-Nov-17 01:30N 58°02' E 008°23'2 4.0
2017-Nov-17 01:00N 58°01' E 008°27'2 4.1
2017-Nov-17 00:30N 58°01' E 008°31'2 4.3
2017-Nov-17 00:00N 58°00' E 008°35'69 5.7
2017-Nov-16 11:55N 57°47' E 010°43'3 7.9
2017-Nov-16 11:30N 57°44' E 010°46'5 9.0
2017-Nov-16 11:00N 57°40' E 010°46'5 9.4
2017-Nov-16 10:30N 57°35' E 010°45'5 9.5
2017-Nov-16 09:59N 57°30' E 010°45'5 9.3
2017-Nov-16 09:26N 57°25' E 010°44'97 5.7
2017-Nov-15 16:21N 55°58' E 012°01'0 0.0
2017-Nov-15 15:57N 55°58' E 012°01'0 0.0
2017-Nov-15 12:35N 55°58' E 012°01'0 3.2
2017-Nov-15 12:30N 55°58' E 012°01'20 4.4
2017-Nov-15 07:55N 56°08' E 012°32'4 9.7
2017-Nov-15 07:30N 56°05' E 012°37'5 9.4
2017-Nov-15 07:00N 56°01' E 012°41'5 9.1
2017-Nov-15 06:30N 55°57' E 012°44'5 9.2
2017-Nov-15 06:00N 55°52' E 012°44'5 9.4
2017-Nov-15 05:30N 55°47' E 012°43'5 9.5
2017-Nov-15 05:00N 55°43' E 012°41'5 9.5
2017-Nov-15 04:30N 55°38' E 012°42'5 9.7
2017-Nov-15 04:01N 55°33' E 012°43'4 8.9
2017-Nov-15 03:30N 55°29' E 012°43'4 9.0
2017-Nov-15 03:00N 55°24' E 012°42'4 8.9
2017-Nov-15 02:30N 55°20' E 012°41'4 7.9
2017-Nov-15 02:00N 55°17' E 012°47'4 8.3
2017-Nov-15 01:30N 55°16' E 012°54'4 8.1
2017-Nov-15 01:00N 55°16' E 013°01'36 7.1
2017-Nov-14 19:53N 55°13' E 014°05'3 5.0
2017-Nov-14 19:20N 55°13' E 014°09'4 5.1
2017-Nov-14 18:36N 55°12' E 014°15'1 5.1
2017-Nov-14 18:27N 55°11' E 014°16'2 4.2
2017-Nov-14 17:52N 55°10' E 014°20'4 4.1
2017-Nov-14 16:59N 55°09' E 014°26'2 3.8
2017-Nov-14 16:30N 55°08' E 014°29'2 4.1
2017-Nov-14 16:01N 55°07' E 014°32'2 4.1
2017-Nov-14 15:30N 55°07' E 014°36'2 3.7
2017-Nov-14 15:00N 55°06' E 014°39'1 2.9
2017-Nov-14 14:30N 55°06' E 014°41'0 0.0
2017-Nov-14 13:53N 55°06' E 014°41'0 0.0
2017-Nov-14 13:29N 55°06' E 014°41'0 0.0
2017-Nov-14 12:59N 55°06' E 014°41'0 0.0
2017-Nov-14 12:29N 55°06' E 014°41'0 0.0
2017-Nov-14 11:59N 55°06' E 014°41'0 0.0
2017-Nov-14 11:23N 55°06' E 014°41'0 0.0
2017-Nov-14 10:56N 55°06' E 014°41'0 0.0
2017-Nov-14 10:29N 55°06' E 014°41'0 0.0
2017-Nov-14 09:59N 55°06' E 014°41'0 0.0
2017-Nov-14 09:29N 55°06' E 014°41'0 0.0
2017-Nov-14 08:59N 55°06' E 014°41'0 0.0
2017-Nov-14 08:29N 55°06' E 014°41'0 0.0
2017-Nov-14 07:59N 55°06' E 014°41'0 0.0
2017-Nov-14 07:29N 55°06' E 014°41'0 0.0
2017-Nov-14 06:59N 55°06' E 014°41'0 0.0
2017-Nov-14 06:29N 55°06' E 014°41'0 0.0
2017-Nov-14 05:59N 55°06' E 014°41'0 0.0
2017-Nov-14 05:29N 55°06' E 014°41'0 0.0
2017-Nov-14 04:59N 55°06' E 014°41'0 0.0
2017-Nov-14 04:29N 55°06' E 014°41'0 0.1
2017-Nov-14 04:01N 55°06' E 014°41'2 4.4
2017-Nov-14 03:30N 55°05' E 014°38'3 5.2
2017-Nov-14 03:00N 55°04' E 014°34'3 5.2
2017-Nov-14 02:30N 55°03' E 014°29'3 5.2
2017-Nov-14 02:00N 55°02' E 014°25'3 5.1
2017-Nov-14 01:30N 55°01' E 014°21'3 5.2
2017-Nov-14 01:00N 55°00' E 014°17'6 5.2
2017-Nov-13 23:54N 54°59' E 014°07'79 3.5
2017-Nov-13 01:10N 54°46' E 011°52'0 0.0
2017-Nov-13 00:58N 54°46' E 011°52'0 0.0
2017-Nov-13 00:25N 54°46' E 011°52'0 0.0
2017-Nov-12 23:58N 54°46' E 011°52'0 0.0
2017-Nov-12 23:19N 54°46' E 011°52'0 0.0
2017-Nov-12 22:58N 54°46' E 011°52'0 0.0
2017-Nov-12 22:25N 54°46' E 011°52'0 0.0
2017-Nov-12 21:58N 54°46' E 011°52'0 0.0
2017-Nov-12 20:52N 54°46' E 011°52'0 0.0
2017-Nov-12 20:28N 54°46' E 011°52'0 0.0
2017-Nov-12 19:58N 54°46' E 011°52'0 0.0
2017-Nov-12 19:28N 54°46' E 011°52'0 0.0
2017-Nov-12 18:58N 54°46' E 011°52'0 0.0
2017-Nov-12 18:25N 54°46' E 011°52'0 0.0
2017-Nov-12 17:49N 54°46' E 011°52'0 0.0
2017-Nov-12 17:25N 54°46' E 011°52'0 0.0
2017-Nov-12 16:58N 54°46' E 011°52'0 0.0
2017-Nov-12 16:25N 54°46' E 011°52'0 0.0
2017-Nov-12 15:58N 54°46' E 011°52'0 0.0
2017-Nov-12 15:13N 54°46' E 011°52'0 0.0
2017-Nov-12 14:58N 54°46' E 011°52'0 0.0
2017-Nov-12 14:25N 54°46' E 011°52'0 0.0
2017-Nov-12 13:58N 54°46' E 011°52'0 0.0
2017-Nov-12 13:07N 54°46' E 011°52'0 0.0
2017-Nov-12 12:58N 54°46' E 011°52'0 0.0
2017-Nov-12 12:25N 54°46' E 011°52'0 0.0
2017-Nov-12 11:58N 54°46' E 011°52'0 0.0
2017-Nov-12 11:28N 54°46' E 011°52'0 0.0
2017-Nov-12 10:58N 54°46' E 011°52'0 0.0
2017-Nov-12 10:25N 54°46' E 011°52'0 0.0
2017-Nov-12 09:52N 54°46' E 011°52'0 0.0
2017-Nov-12 09:28N 54°46' E 011°52'0 0.0
2017-Nov-12 08:55N 54°46' E 011°52'0 0.0
2017-Nov-12 08:28N 54°46' E 011°52'0 0.1
2017-Nov-12 07:58N 54°46' E 011°52'0 0.0
2017-Nov-12 07:28N 54°46' E 011°52'0 0.0
2017-Nov-12 06:58N 54°46' E 011°52'0 0.0
2017-Nov-12 06:28N 54°46' E 011°52'0 0.0
2017-Nov-12 05:58N 54°46' E 011°52'0 0.0
2017-Nov-12 05:28N 54°46' E 011°52'0 0.0
2017-Nov-12 04:58N 54°46' E 011°52'0 0.0
2017-Nov-12 04:25N 54°46' E 011°52'0 0.0
2017-Nov-12 03:58N 54°46' E 011°52'0 0.0
2017-Nov-12 03:25N 54°46' E 011°52'0 0.0
2017-Nov-12 02:52N 54°46' E 011°52'0 0.0
2017-Nov-12 02:28N 54°46' E 011°52'0 0.0
2017-Nov-12 01:52N 54°46' E 011°52'0 0.0
2017-Nov-12 01:10N 54°46' E 011°52'0 0.0
2017-Nov-12 00:58N 54°46' E 011°52'0 0.0
2017-Nov-12 00:25N 54°46' E 011°52'0 0.0
2017-Nov-11 23:58N 54°46' E 011°52'0 0.0
2017-Nov-11 23:28N 54°46' E 011°52'0 0.0
2017-Nov-11 22:52N 54°46' E 011°52'0 0.0
2017-Nov-11 22:28N 54°46' E 011°52'0 0.0
2017-Nov-11 21:46N 54°46' E 011°52'0 0.0
2017-Nov-11 21:25N 54°46' E 011°52'0 0.0
2017-Nov-11 20:58N 54°46' E 011°52'0 0.0
2017-Nov-11 20:28N 54°46' E 011°52'0 0.0
2017-Nov-11 19:58N 54°46' E 011°52'0 0.0
2017-Nov-11 19:25N 54°46' E 011°52'0 0.0
2017-Nov-11 18:55N 54°46' E 011°52'0 0.0
2017-Nov-11 18:28N 54°46' E 011°52'0 0.0
2017-Nov-11 17:52N 54°46' E 011°52'0 0.0
2017-Nov-11 17:28N 54°46' E 011°52'0 0.0
2017-Nov-11 16:58N 54°46' E 011°52'0 0.0
2017-Nov-11 16:22N 54°46' E 011°52'0 0.0
2017-Nov-11 15:55N 54°46' E 011°52'0 0.0
2017-Nov-11 15:28N 54°46' E 011°52'0 0.0
2017-Nov-11 14:55N 54°46' E 011°52'0 0.0
2017-Nov-11 14:16N 54°46' E 011°52'0 0.0
2017-Nov-11 13:58N 54°46' E 011°52'0 0.0
2017-Nov-11 13:28N 54°46' E 011°52'0 0.0
2017-Nov-11 12:58N 54°46' E 011°52'0 0.0
2017-Nov-11 12:28N 54°46' E 011°52'0 0.0
2017-Nov-11 11:58N 54°46' E 011°52'0 0.0
2017-Nov-11 11:28N 54°46' E 011°52'0 0.0
2017-Nov-11 10:43N 54°46' E 011°52'0 0.0
2017-Nov-11 10:28N 54°46' E 011°52'0 0.0
2017-Nov-11 09:58N 54°46' E 011°52'0 0.0
2017-Nov-11 09:28N 54°46' E 011°52'0 0.0
2017-Nov-11 08:58N 54°46' E 011°52'0 0.0
2017-Nov-11 08:28N 54°46' E 011°52'0 0.0
2017-Nov-11 07:49N 54°46' E 011°52'0 0.0
2017-Nov-11 07:28N 54°46' E 011°52'0 0.0
2017-Nov-11 06:58N 54°46' E 011°52'0 0.0
2017-Nov-11 06:22N 54°46' E 011°52'0 0.0
2017-Nov-11 05:58N 54°46' E 011°52'0 0.0
2017-Nov-11 05:16N 54°46' E 011°52'0 0.0
2017-Nov-11 04:58N 54°46' E 011°52'0 0.0
2017-Nov-11 04:22N 54°46' E 011°52'0 0.0
2017-Nov-11 03:58N 54°46' E 011°52'0 0.0
2017-Nov-11 03:22N 54°46' E 011°52'0 0.0
2017-Nov-11 02:58N 54°46' E 011°52'0 0.0
2017-Nov-11 02:28N 54°46' E 011°52'0 0.0
2017-Nov-11 01:58N 54°46' E 011°52'0 0.0
2017-Nov-11 01:22N 54°46' E 011°52'0 0.0
2017-Nov-11 00:55N 54°46' E 011°52'0 0.0
2017-Nov-11 00:25N 54°46' E 011°52'0 0.0
2017-Nov-10 23:58N 54°46' E 011°52'0 0.0
2017-Nov-10 23:28N 54°46' E 011°52'0 0.0
2017-Nov-10 22:58N 54°46' E 011°52'0 0.0
2017-Nov-10 22:28N 54°46' E 011°52'0 0.0
2017-Nov-10 21:58N 54°46' E 011°52'0 0.0
2017-Nov-10 21:22N 54°46' E 011°52'0 0.0
2017-Nov-10 20:58N 54°46' E 011°52'0 0.0
2017-Nov-10 20:19N 54°46' E 011°52'0 0.0
2017-Nov-10 19:52N 54°46' E 011°52'0 0.0
2017-Nov-10 19:28N 54°46' E 011°52'0 0.0
2017-Nov-10 18:46N 54°46' E 011°52'0 0.0
2017-Nov-10 16:04N 54°46' E 011°52'0 0.0
2017-Nov-10 15:58N 54°46' E 011°52'0 0.0
2017-Nov-10 15:28N 54°46' E 011°52'0 0.0
2017-Nov-10 14:46N 54°46' E 011°52'0 0.0
2017-Nov-10 14:22N 54°46' E 011°52'0 0.0
2017-Nov-10 13:58N 54°46' E 011°52'0 0.0
2017-Nov-10 13:16N 54°46' E 011°52'0 0.1
2017-Nov-10 12:57N 54°46' E 011°52'3 6.5
2017-Nov-10 12:28N 54°48' E 011°48'3 5.7
2017-Nov-10 11:54N 54°51' E 011°45'3 6.9
2017-Nov-10 11:30N 54°54' E 011°44'4 7.2
2017-Nov-10 11:00N 54°56' E 011°39'3 6.8
2017-Nov-10 10:30N 54°59' E 011°36'4 8.1
2017-Nov-10 10:00N 55°02' E 011°31'4 8.2
2017-Nov-10 09:30N 55°04' E 011°25'4 7.8
2017-Nov-10 09:00N 55°07' E 011°20'3 6.8
2017-Nov-10 08:30N 55°10' E 011°17'  
Track history (hours):
 
Tides and Currents Weather Stations Pressure Air Temp Water Temp Dewpoint Dewpoint Depression Visibility Wind Speed Wind Dir Waves Ship Positions

Alba Rousing

Last reported at 2017-Nov-20 00:30 UTC. Time now 2017-Nov-20 01:50 UTC.
Position N 59°59' E 004°56'.

Length 79 m; draft 2.8 m.

Type: Ship. MMSI: 220439000.

Date/timePositionNaut miles runAvg speedWind from/ knotsBaromVisibWave heightAir tempDewpointWater temp
2017-Nov-20 00:30N 59°59' E 004°56'2 4.8
2017-Nov-20 00:00N 59°57' E 004°56'2 4.8
2017-Nov-19 23:30N 59°54' E 004°57'3 5.0
2017-Nov-19 23:00N 59°52' E 004°57'3 5.8
2017-Nov-19 22:30N 59°49' E 004°57'3 5.7
2017-Nov-19 22:00N 59°46' E 004°57'3 6.2
2017-Nov-19 21:30N 59°43' E 004°57'3 6.6
2017-Nov-19 21:00N 59°40' E 004°57'3 6.4
2017-Nov-19 20:30N 59°36' E 004°57'3 5.3
2017-Nov-19 20:00N 59°34' E 004°57'3 5.2
2017-Nov-19 19:30N 59°31' E 004°57'3 5.4
2017-Nov-19 19:00N 59°29' E 004°57'3 5.4
2017-Nov-19 18:30N 59°26' E 004°57'2 4.7
2017-Nov-19 18:00N 59°23' E 004°57'3 5.2
2017-Nov-19 17:30N 59°21' E 004°57'3 5.1
2017-Nov-19 17:00N 59°18' E 004°59'3 5.9
2017-Nov-19 16:30N 59°16' E 005°01'3 5.6
2017-Nov-19 16:00N 59°13' E 005°03'3 5.5
2017-Nov-19 15:30N 59°11' E 005°05'3 6.0
2017-Nov-19 15:00N 59°08' E 005°09'3 6.2
2017-Nov-19 14:30N 59°07' E 005°15'4 8.3
2017-Nov-19 14:00N 59°07' E 005°23'4 8.2
2017-Nov-19 13:30N 59°06' E 005°31'3 7.0
2017-Nov-19 13:00N 59°04' E 005°35'4 8.8
2017-Nov-19 12:30N 59°01' E 005°41'4 7.0
2017-Nov-19 12:00N 58°59' E 005°47'4 8.6
2017-Nov-19 11:30N 58°54' E 005°46'3 6.1
2017-Nov-19 10:59N 58°51' E 005°45'0 0.0
2017-Nov-19 10:29N 58°51' E 005°45'0 0.0
2017-Nov-19 09:59N 58°51' E 005°45'0 0.0
2017-Nov-19 09:29N 58°51' E 005°45'0 0.0
2017-Nov-19 08:59N 58°51' E 005°45'0 0.0
2017-Nov-19 08:29N 58°51' E 005°45'0 0.0
2017-Nov-19 08:00N 58°51' E 005°45'0 0.0
2017-Nov-19 07:29N 58°51' E 005°45'0 0.0
2017-Nov-19 06:59N 58°51' E 005°45'0 0.0
2017-Nov-19 06:31N 58°51' E 005°45'0 0.0
2017-Nov-19 05:59N 58°51' E 005°45'0 0.0
2017-Nov-19 05:29N 58°51' E 005°45'0 0.0
2017-Nov-19 04:59N 58°51' E 005°45'0 0.0
2017-Nov-19 04:29N 58°51' E 005°45'0 0.0
2017-Nov-19 03:59N 58°51' E 005°45'0 0.0
2017-Nov-19 03:31N 58°51' E 005°45'0 0.0
2017-Nov-19 02:59N 58°51' E 005°45'0 0.0
2017-Nov-19 02:28N 58°51' E 005°45'0 0.0
2017-Nov-19 01:59N 58°51' E 005°45'0 0.0
2017-Nov-19 01:29N 58°51' E 005°45'0 0.0
2017-Nov-19 00:59N 58°51' E 005°45'0 0.0
2017-Nov-19 00:25N 58°51' E 005°45'0 0.0
2017-Nov-19 00:00N 58°51' E 005°45'0 0.0
2017-Nov-18 23:29N 58°51' E 005°45'0 0.0
2017-Nov-18 22:59N 58°51' E 005°45'0 0.0
2017-Nov-18 22:29N 58°51' E 005°45'0 0.0
2017-Nov-18 21:59N 58°51' E 005°45'0 0.0
2017-Nov-18 21:29N 58°51' E 005°45'0 0.0
2017-Nov-18 20:59N 58°51' E 005°45'0 0.0
2017-Nov-18 20:30N 58°51' E 005°45'3 5.2
2017-Nov-18 20:00N 58°54' E 005°46'4 8.9
2017-Nov-18 19:30N 58°58' E 005°48'4 7.9
2017-Nov-18 19:00N 59°02' E 005°46'4 8.1
2017-Nov-18 18:30N 59°02' E 005°38'2 4.9
2017-Nov-18 18:00N 59°01' E 005°33'3 7.0
2017-Nov-18 17:30N 58°58' E 005°33'3 6.8
2017-Nov-18 17:00N 58°55' E 005°32'3 5.5
2017-Nov-18 16:30N 58°52' E 005°31'3 6.6
2017-Nov-18 16:01N 58°51' E 005°25'4 7.1
2017-Nov-18 15:31N 58°52' E 005°18'2 3.1
2017-Nov-18 15:00N 58°51' E 005°19'1 2.9
2017-Nov-18 14:30N 58°49' E 005°20'1 2.6
2017-Nov-18 14:00N 58°48' E 005°21'1 2.9
2017-Nov-18 13:30N 58°47' E 005°22'2 3.1
2017-Nov-18 13:00N 58°46' E 005°23'2 3.3
2017-Nov-18 12:30N 58°44' E 005°23'2 3.5
2017-Nov-18 12:00N 58°42' E 005°23'2 3.4
2017-Nov-18 11:30N 58°40' E 005°24'2 3.0
2017-Nov-18 11:00N 58°39' E 005°25'2 3.0
2017-Nov-18 10:30N 58°38' E 005°27'2 3.5
2017-Nov-18 10:00N 58°36' E 005°29'2 4.0
2017-Nov-18 09:30N 58°35' E 005°31'2 4.4
2017-Nov-18 09:00N 58°33' E 005°33'2 4.3
2017-Nov-18 08:30N 58°31' E 005°35'2 4.1
2017-Nov-18 08:00N 58°30' E 005°38'2 4.0
2017-Nov-18 07:30N 58°28' E 005°40'2 4.1
2017-Nov-18 07:00N 58°26' E 005°43'2 4.1
2017-Nov-18 06:30N 58°25' E 005°45'2 4.2
2017-Nov-18 06:00N 58°23' E 005°48'2 4.1
2017-Nov-18 05:30N 58°22' E 005°50'2 4.3
2017-Nov-18 05:00N 58°20' E 005°53'2 4.8
2017-Nov-18 04:30N 58°18' E 005°56'2 5.0
2017-Nov-18 04:00N 58°17' E 006°00'2 4.6
2017-Nov-18 03:30N 58°15' E 006°04'3 5.3
2017-Nov-18 03:00N 58°14' E 006°07'3 5.4
2017-Nov-18 02:30N 58°12' E 006°12'3 5.1
2017-Nov-18 01:59N 58°11' E 006°16'2 4.9
2017-Nov-18 01:30N 58°09' E 006°19'3 5.0
2017-Nov-18 01:00N 58°08' E 006°23'2 4.4
2017-Nov-18 00:29N 58°06' E 006°26'2 3.9
2017-Nov-18 00:00N 58°05' E 006°29'2 4.0
2017-Nov-17 23:30N 58°04' E 006°32'2 3.8
2017-Nov-17 23:00N 58°03' E 006°35'2 3.7
2017-Nov-17 22:30N 58°02' E 006°38'2 3.4
2017-Nov-17 22:00N 58°01' E 006°41'2 3.8
2017-Nov-17 21:30N 58°00' E 006°44'2 4.0
2017-Nov-17 21:00N 57°59' E 006°47'2 4.0
2017-Nov-17 20:30N 57°59' E 006°51'2 3.5
2017-Nov-17 20:00N 57°58' E 006°54'2 4.0
2017-Nov-17 19:30N 57°58' E 006°58'2 3.7
2017-Nov-17 19:00N 57°57' E 007°01'2 3.9
2017-Nov-17 18:30N 57°57' E 007°05'2 4.1
2017-Nov-17 18:00N 57°57' E 007°09'2 3.8
2017-Nov-17 17:30N 57°57' E 007°12'2 4.0
2017-Nov-17 17:00N 57°57' E 007°16'2 3.7
2017-Nov-17 16:29N 57°56' E 007°20'2 3.6
2017-Nov-17 16:00N 57°56' E 007°23'2 3.6
2017-Nov-17 15:30N 57°56' E 007°26'2 3.5
2017-Nov-17 15:00N 57°56' E 007°29'2 3.5
2017-Nov-17 14:30N 57°56' E 007°33'2 3.6
2017-Nov-17 14:00N 57°57' E 007°36'2 4.3
2017-Nov-17 13:29N 57°57' E 007°40'2 4.8
2017-Nov-17 13:00N 57°58' E 007°44'2 5.0
2017-Nov-17 12:30N 57°59' E 007°48'3 5.3
2017-Nov-17 12:00N 58°02' E 007°50'3 5.6
2017-Nov-17 11:30N 58°04' E 007°48'0 0.7
2017-Nov-17 11:00N 58°04' E 007°48'0 0.0
2017-Nov-17 10:30N 58°04' E 007°48'0 0.0
2017-Nov-17 09:57N 58°04' E 007°48'0 0.0
2017-Nov-17 09:30N 58°04' E 007°48'0 0.0
2017-Nov-17 09:00N 58°04' E 007°48'0 0.0
2017-Nov-17 08:30N 58°04' E 007°48'0 0.0
2017-Nov-17 08:00N 58°04' E 007°48'0 0.0
2017-Nov-17 07:30N 58°04' E 007°48'0 0.0
2017-Nov-17 07:00N 58°04' E 007°48'0 0.0
2017-Nov-17 06:30N 58°04' E 007°48'0 0.0
2017-Nov-17 06:00N 58°04' E 007°48'0 0.2
2017-Nov-17 05:30N 58°04' E 007°48'3 6.1
2017-Nov-17 05:00N 58°02' E 007°52'4 7.2
2017-Nov-17 04:30N 58°05' E 007°57'3 6.6
2017-Nov-17 04:00N 58°05' E 008°03'3 6.5
2017-Nov-17 03:30N 58°03' E 008°08'2 4.3
2017-Nov-17 03:00N 58°03' E 008°12'2 4.3
2017-Nov-17 02:30N 58°02' E 008°16'2 4.2
2017-Nov-17 02:00N 58°02' E 008°20'2 4.0
2017-Nov-17 01:30N 58°02' E 008°23'2 4.0
2017-Nov-17 01:00N 58°01' E 008°27'2 4.1
2017-Nov-17 00:30N 58°01' E 008°31'2 4.3
2017-Nov-17 00:00N 58°00' E 008°35'69 5.7
2017-Nov-16 11:55N 57°47' E 010°43'3 7.9
2017-Nov-16 11:30N 57°44' E 010°46'5 9.0
2017-Nov-16 11:00N 57°40' E 010°46'5 9.4
2017-Nov-16 10:30N 57°35' E 010°45'5 9.5
2017-Nov-16 09:59N 57°30' E 010°45'5 9.3
2017-Nov-16 09:26N 57°25' E 010°44'97 5.7
2017-Nov-15 16:21N 55°58' E 012°01'0 0.0
2017-Nov-15 15:57N 55°58' E 012°01'0 0.0
2017-Nov-15 12:35N 55°58' E 012°01'0 3.2
2017-Nov-15 12:30N 55°58' E 012°01'20 4.4
2017-Nov-15 07:55N 56°08' E 012°32'4 9.7
2017-Nov-15 07:30N 56°05' E 012°37'5 9.4
2017-Nov-15 07:00N 56°01' E 012°41'5 9.1
2017-Nov-15 06:30N 55°57' E 012°44'5 9.2
2017-Nov-15 06:00N 55°52' E 012°44'5 9.4
2017-Nov-15 05:30N 55°47' E 012°43'5 9.5
2017-Nov-15 05:00N 55°43' E 012°41'5 9.5
2017-Nov-15 04:30N 55°38' E 012°42'5 9.7
2017-Nov-15 04:01N 55°33' E 012°43'4 8.9
2017-Nov-15 03:30N 55°29' E 012°43'4 9.0
2017-Nov-15 03:00N 55°24' E 012°42'4 8.9
2017-Nov-15 02:30N 55°20' E 012°41'4 7.9
2017-Nov-15 02:00N 55°17' E 012°47'4 8.3
2017-Nov-15 01:30N 55°16' E 012°54'4 8.1
2017-Nov-15 01:00N 55°16' E 013°01'36 7.1
2017-Nov-14 19:53N 55°13' E 014°05'3 5.0
2017-Nov-14 19:20N 55°13' E 014°09'4 5.1
2017-Nov-14 18:36N 55°12' E 014°15'1 5.1
2017-Nov-14 18:27N 55°11' E 014°16'2 4.2
2017-Nov-14 17:52N 55°10' E 014°20'4 4.1
2017-Nov-14 16:59N 55°09' E 014°26'2 3.8
2017-Nov-14 16:30N 55°08' E 014°29'2 4.1
2017-Nov-14 16:01N 55°07' E 014°32'2 4.1
2017-Nov-14 15:30N 55°07' E 014°36'2 3.7
2017-Nov-14 15:00N 55°06' E 014°39'1 2.9
2017-Nov-14 14:30N 55°06' E 014°41'0 0.0
2017-Nov-14 13:53N 55°06' E 014°41'0 0.0
2017-Nov-14 13:29N 55°06' E 014°41'0 0.0
2017-Nov-14 12:59N 55°06' E 014°41'0 0.0
2017-Nov-14 12:29N 55°06' E 014°41'0 0.0
2017-Nov-14 11:59N 55°06' E 014°41'0 0.0
2017-Nov-14 11:23N 55°06' E 014°41'0 0.0
2017-Nov-14 10:56N 55°06' E 014°41'0 0.0
2017-Nov-14 10:29N 55°06' E 014°41'0 0.0
2017-Nov-14 09:59N 55°06' E 014°41'0 0.0
2017-Nov-14 09:29N 55°06' E 014°41'0 0.0
2017-Nov-14 08:59N 55°06' E 014°41'0 0.0
2017-Nov-14 08:29N 55°06' E 014°41'0 0.0
2017-Nov-14 07:59N 55°06' E 014°41'0 0.0
2017-Nov-14 07:29N 55°06' E 014°41'0 0.0
2017-Nov-14 06:59N 55°06' E 014°41'0 0.0
2017-Nov-14 06:29N 55°06' E 014°41'0 0.0
2017-Nov-14 05:59N 55°06' E 014°41'0 0.0
2017-Nov-14 05:29N 55°06' E 014°41'0 0.0
2017-Nov-14 04:59N 55°06' E 014°41'0 0.0
2017-Nov-14 04:29N 55°06' E 014°41'0 0.1
2017-Nov-14 04:01N 55°06' E 014°41'2 4.4
2017-Nov-14 03:30N 55°05' E 014°38'3 5.2
2017-Nov-14 03:00N 55°04' E 014°34'3 5.2
2017-Nov-14 02:30N 55°03' E 014°29'3 5.2
2017-Nov-14 02:00N 55°02' E 014°25'3 5.1
2017-Nov-14 01:30N 55°01' E 014°21'3 5.2
2017-Nov-14 01:00N 55°00' E 014°17'6 5.2
2017-Nov-13 23:54N 54°59' E 014°07'79 3.5
2017-Nov-13 01:10N 54°46' E 011°52'0 0.0
2017-Nov-13 00:58N 54°46' E 011°52'0 0.0
2017-Nov-13 00:25N 54°46' E 011°52'0 0.0
2017-Nov-12 23:58N 54°46' E 011°52'0 0.0
2017-Nov-12 23:19N 54°46' E 011°52'0 0.0
2017-Nov-12 22:58N 54°46' E 011°52'0 0.0
2017-Nov-12 22:25N 54°46' E 011°52'0 0.0
2017-Nov-12 21:58N 54°46' E 011°52'0 0.0
2017-Nov-12 20:52N 54°46' E 011°52'0 0.0
2017-Nov-12 20:28N 54°46' E 011°52'0 0.0
2017-Nov-12 19:58N 54°46' E 011°52'0 0.0
2017-Nov-12 19:28N 54°46' E 011°52'0 0.0
2017-Nov-12 18:58N 54°46' E 011°52'0 0.0
2017-Nov-12 18:25N 54°46' E 011°52'0 0.0
2017-Nov-12 17:49N 54°46' E 011°52'0 0.0
2017-Nov-12 17:25N 54°46' E 011°52'0 0.0
2017-Nov-12 16:58N 54°46' E 011°52'0 0.0
2017-Nov-12 16:25N 54°46' E 011°52'0 0.0
2017-Nov-12 15:58N 54°46' E 011°52'0 0.0
2017-Nov-12 15:13N 54°46' E 011°52'0 0.0
2017-Nov-12 14:58N 54°46' E 011°52'0 0.0
2017-Nov-12 14:25N 54°46' E 011°52'0 0.0
2017-Nov-12 13:58N 54°46' E 011°52'0 0.0
2017-Nov-12 13:07N 54°46' E 011°52'0 0.0
2017-Nov-12 12:58N 54°46' E 011°52'0 0.0
2017-Nov-12 12:25N 54°46' E 011°52'0 0.0
2017-Nov-12 11:58N 54°46' E 011°52'0 0.0
2017-Nov-12 11:28N 54°46' E 011°52'0 0.0
2017-Nov-12 10:58N 54°46' E 011°52'0 0.0
2017-Nov-12 10:25N 54°46' E 011°52'0 0.0
2017-Nov-12 09:52N 54°46' E 011°52'0 0.0
2017-Nov-12 09:28N 54°46' E 011°52'0 0.0
2017-Nov-12 08:55N 54°46' E 011°52'0 0.0
2017-Nov-12 08:28N 54°46' E 011°52'0 0.1
2017-Nov-12 07:58N 54°46' E 011°52'0 0.0
2017-Nov-12 07:28N 54°46' E 011°52'0 0.0
2017-Nov-12 06:58N 54°46' E 011°52'0 0.0
2017-Nov-12 06:28N 54°46' E 011°52'0 0.0
2017-Nov-12 05:58N 54°46' E 011°52'0 0.0
2017-Nov-12 05:28N 54°46' E 011°52'0 0.0
2017-Nov-12 04:58N 54°46' E 011°52'0 0.0
2017-Nov-12 04:25N 54°46' E 011°52'0 0.0
2017-Nov-12 03:58N 54°46' E 011°52'0 0.0
2017-Nov-12 03:25N 54°46' E 011°52'0 0.0
2017-Nov-12 02:52N 54°46' E 011°52'0 0.0
2017-Nov-12 02:28N 54°46' E 011°52'0 0.0
2017-Nov-12 01:52N 54°46' E 011°52'0 0.0
2017-Nov-12 01:10N 54°46' E 011°52'0 0.0
2017-Nov-12 00:58N 54°46' E 011°52'0 0.0
2017-Nov-12 00:25N 54°46' E 011°52'0 0.0
2017-Nov-11 23:58N 54°46' E 011°52'0 0.0
2017-Nov-11 23:28N 54°46' E 011°52'0 0.0
2017-Nov-11 22:52N 54°46' E 011°52'0 0.0
2017-Nov-11 22:28N 54°46' E 011°52'0 0.0
2017-Nov-11 21:46N 54°46' E 011°52'0 0.0
2017-Nov-11 21:25N 54°46' E 011°52'0 0.0
2017-Nov-11 20:58N 54°46' E 011°52'0 0.0
2017-Nov-11 20:28N 54°46' E 011°52'0 0.0
2017-Nov-11 19:58N 54°46' E 011°52'0 0.0
2017-Nov-11 19:25N 54°46' E 011°52'0 0.0
2017-Nov-11 18:55N 54°46' E 011°52'0 0.0
2017-Nov-11 18:28N 54°46' E 011°52'0 0.0
2017-Nov-11 17:52N 54°46' E 011°52'0 0.0
2017-Nov-11 17:28N 54°46' E 011°52'0 0.0
2017-Nov-11 16:58N 54°46' E 011°52'0 0.0
2017-Nov-11 16:22N 54°46' E 011°52'0 0.0
2017-Nov-11 15:55N 54°46' E 011°52'0 0.0
2017-Nov-11 15:28N 54°46' E 011°52'0 0.0
2017-Nov-11 14:55N 54°46' E 011°52'0 0.0
2017-Nov-11 14:16N 54°46' E 011°52'0 0.0
2017-Nov-11 13:58N 54°46' E 011°52'0 0.0
2017-Nov-11 13:28N 54°46' E 011°52'0 0.0
2017-Nov-11 12:58N 54°46' E 011°52'0 0.0
2017-Nov-11 12:28N 54°46' E 011°52'0 0.0
2017-Nov-11 11:58N 54°46' E 011°52'0 0.0
2017-Nov-11 11:28N 54°46' E 011°52'0 0.0
2017-Nov-11 10:43N 54°46' E 011°52'0 0.0
2017-Nov-11 10:28N 54°46' E 011°52'0 0.0
2017-Nov-11 09:58N 54°46' E 011°52'0 0.0
2017-Nov-11 09:28N 54°46' E 011°52'0 0.0
2017-Nov-11 08:58N 54°46' E 011°52'0 0.0
2017-Nov-11 08:28N 54°46' E 011°52'0 0.0
2017-Nov-11 07:49N 54°46' E 011°52'0 0.0
2017-Nov-11 07:28N 54°46' E 011°52'0 0.0
2017-Nov-11 06:58N 54°46' E 011°52'0 0.0
2017-Nov-11 06:22N 54°46' E 011°52'0 0.0
2017-Nov-11 05:58N 54°46' E 011°52'0 0.0
2017-Nov-11 05:16N 54°46' E 011°52'0 0.0
2017-Nov-11 04:58N 54°46' E 011°52'0 0.0
2017-Nov-11 04:22N 54°46' E 011°52'0 0.0
2017-Nov-11 03:58N 54°46' E 011°52'0 0.0
2017-Nov-11 03:22N 54°46' E 011°52'0 0.0
2017-Nov-11 02:58N 54°46' E 011°52'0 0.0
2017-Nov-11 02:28N 54°46' E 011°52'0 0.0
2017-Nov-11 01:58N 54°46' E 011°52'0 0.0
2017-Nov-11 01:22N 54°46' E 011°52'0 0.0
2017-Nov-11 00:55N 54°46' E 011°52'0 0.0
2017-Nov-11 00:25N 54°46' E 011°52'0 0.0
2017-Nov-10 23:58N 54°46' E 011°52'0 0.0
2017-Nov-10 23:28N 54°46' E 011°52'0 0.0
2017-Nov-10 22:58N 54°46' E 011°52'0 0.0
2017-Nov-10 22:28N 54°46' E 011°52'0 0.0
2017-Nov-10 21:58N 54°46' E 011°52'0 0.0
2017-Nov-10 21:22N 54°46' E 011°52'0 0.0
2017-Nov-10 20:58N 54°46' E 011°52'0 0.0
2017-Nov-10 20:19N 54°46' E 011°52'0 0.0
2017-Nov-10 19:52N 54°46' E 011°52'0 0.0
2017-Nov-10 19:28N 54°46' E 011°52'0 0.0
2017-Nov-10 18:46N 54°46' E 011°52'0 0.0
2017-Nov-10 16:04N 54°46' E 011°52'0 0.0
2017-Nov-10 15:58N 54°46' E 011°52'0 0.0
2017-Nov-10 15:28N 54°46' E 011°52'0 0.0
2017-Nov-10 14:46N 54°46' E 011°52'0 0.0
2017-Nov-10 14:22N 54°46' E 011°52'0 0.0
2017-Nov-10 13:58N 54°46' E 011°52'0 0.0
2017-Nov-10 13:16N 54°46' E 011°52'0 0.1
2017-Nov-10 12:57N 54°46' E 011°52'3 6.5
2017-Nov-10 12:28N 54°48' E 011°48'3 5.7
2017-Nov-10 11:54N 54°51' E 011°45'3 6.9
2017-Nov-10 11:30N 54°54' E 011°44'4 7.2
2017-Nov-10 11:00N 54°56' E 011°39'3 6.8
2017-Nov-10 10:30N 54°59' E 011°36'4 8.1
2017-Nov-10 10:00N 55°02' E 011°31'4 8.2
2017-Nov-10 09:30N 55°04' E 011°25'4 7.8
2017-Nov-10 09:00N 55°07' E 011°20'3 6.8
2017-Nov-10 08:30N 55°10' E 011°17'  

Dump ship's entire track history